sensor_id;sensor_type;location;lat;lon;timestamp;P1;durP1;ratioP1;P2;durP2;ratioP2
18738;SDS011;9498;51.862;19.460;2023-05-10T00:01:49;7.17;;;3.77;;
18738;SDS011;9498;51.862;19.460;2023-05-10T00:04:17;6.53;;;3.90;;
18738;SDS011;9498;51.862;19.460;2023-05-10T00:06:44;6.37;;;3.83;;
18738;SDS011;9498;51.862;19.460;2023-05-10T00:09:11;10.57;;;4.07;;
18738;SDS011;9498;51.862;19.460;2023-05-10T00:11:40;9.33;;;3.77;;
18738;SDS011;9498;51.862;19.460;2023-05-10T00:14:07;8.83;;;4.50;;
18738;SDS011;9498;51.862;19.460;2023-05-10T00:16:34;10.83;;;4.23;;
18738;SDS011;9498;51.862;19.460;2023-05-10T00:19:01;8.93;;;4.20;;
18738;SDS011;9498;51.862;19.460;2023-05-10T00:21:28;9.47;;;3.60;;
18738;SDS011;9498;51.862;19.460;2023-05-10T00:23:56;10.67;;;3.87;;
18738;SDS011;9498;51.862;19.460;2023-05-10T00:26:23;11.77;;;3.80;;
18738;SDS011;9498;51.862;19.460;2023-05-10T00:28:52;9.17;;;4.00;;
18738;SDS011;9498;51.862;19.460;2023-05-10T00:31:19;9.40;;;3.90;;
18738;SDS011;9498;51.862;19.460;2023-05-10T00:33:46;10.97;;;4.13;;
18738;SDS011;9498;51.862;19.460;2023-05-10T00:36:13;6.77;;;3.87;;
18738;SDS011;9498;51.862;19.460;2023-05-10T00:38:41;8.33;;;3.90;;
18738;SDS011;9498;51.862;19.460;2023-05-10T00:41:08;7.90;;;3.83;;
18738;SDS011;9498;51.862;19.460;2023-05-10T00:43:35;7.73;;;4.00;;
18738;SDS011;9498;51.862;19.460;2023-05-10T00:46:04;7.23;;;3.70;;
18738;SDS011;9498;51.862;19.460;2023-05-10T00:48:31;9.20;;;3.70;;
18738;SDS011;9498;51.862;19.460;2023-05-10T00:50:58;7.63;;;3.77;;
18738;SDS011;9498;51.862;19.460;2023-05-10T00:53:26;6.57;;;3.37;;
18738;SDS011;9498;51.862;19.460;2023-05-10T00:55:53;8.90;;;3.83;;
18738;SDS011;9498;51.862;19.460;2023-05-10T00:58:20;8.77;;;3.83;;
18738;SDS011;9498;51.862;19.460;2023-05-10T01:00:48;10.60;;;3.70;;
18738;SDS011;9498;51.862;19.460;2023-05-10T01:03:17;8.37;;;4.00;;
18738;SDS011;9498;51.862;19.460;2023-05-10T01:05:45;7.87;;;3.60;;
18738;SDS011;9498;51.862;19.460;2023-05-10T01:08:12;7.07;;;3.60;;
18738;SDS011;9498;51.862;19.460;2023-05-10T01:10:39;7.90;;;3.73;;
18738;SDS011;9498;51.862;19.460;2023-05-10T01:13:06;6.00;;;3.37;;
18738;SDS011;9498;51.862;19.460;2023-05-10T01:15:34;6.17;;;3.70;;
18738;SDS011;9498;51.862;19.460;2023-05-10T01:18:01;10.10;;;3.47;;
18738;SDS011;9498;51.862;19.460;2023-05-10T01:20:31;7.90;;;3.53;;
18738;SDS011;9498;51.862;19.460;2023-05-10T01:23:19;7.00;;;3.50;;
18738;SDS011;9498;51.862;19.460;2023-05-10T01:26:06;8.00;;;3.50;;
18738;SDS011;9498;51.862;19.460;2023-05-10T01:31:22;10.00;;;3.43;;
18738;SDS011;9498;51.862;19.460;2023-05-10T01:33:55;8.20;;;3.37;;
18738;SDS011;9498;51.862;19.460;2023-05-10T01:36:25;9.17;;;3.33;;
18738;SDS011;9498;51.862;19.460;2023-05-10T01:38:56;8.23;;;4.13;;
18738;SDS011;9498;51.862;19.460;2023-05-10T01:41:28;7.67;;;3.63;;
18738;SDS011;9498;51.862;19.460;2023-05-10T01:43:57;10.27;;;3.53;;
18738;SDS011;9498;51.862;19.460;2023-05-10T01:46:27;6.87;;;3.40;;
18738;SDS011;9498;51.862;19.460;2023-05-10T01:48:57;9.27;;;3.83;;
18738;SDS011;9498;51.862;19.460;2023-05-10T01:51:27;15.03;;;3.90;;
18738;SDS011;9498;51.862;19.460;2023-05-10T01:53:58;9.77;;;3.30;;
18738;SDS011;9498;51.862;19.460;2023-05-10T01:56:26;5.93;;;3.73;;
18738;SDS011;9498;51.862;19.460;2023-05-10T01:58:54;10.67;;;3.73;;
18738;SDS011;9498;51.862;19.460;2023-05-10T02:01:22;7.63;;;3.70;;
18738;SDS011;9498;51.862;19.460;2023-05-10T02:03:51;15.37;;;3.93;;
18738;SDS011;9498;51.862;19.460;2023-05-10T02:06:20;8.37;;;3.63;;
18738;SDS011;9498;51.862;19.460;2023-05-10T02:08:49;8.70;;;3.80;;
18738;SDS011;9498;51.862;19.460;2023-05-10T02:11:16;8.43;;;3.70;;
18738;SDS011;9498;51.862;19.460;2023-05-10T02:13:44;5.47;;;3.20;;
18738;SDS011;9498;51.862;19.460;2023-05-10T02:16:12;6.93;;;3.73;;
18738;SDS011;9498;51.862;19.460;2023-05-10T02:18:40;6.27;;;3.33;;
18738;SDS011;9498;51.862;19.460;2023-05-10T02:21:08;7.23;;;3.60;;
18738;SDS011;9498;51.862;19.460;2023-05-10T02:23:36;8.67;;;3.63;;
18738;SDS011;9498;51.862;19.460;2023-05-10T02:26:04;11.67;;;3.57;;
18738;SDS011;9498;51.862;19.460;2023-05-10T02:28:31;8.70;;;3.40;;
18738;SDS011;9498;51.862;19.460;2023-05-10T02:31:00;5.90;;;2.80;;
18738;SDS011;9498;51.862;19.460;2023-05-10T02:33:27;7.63;;;3.73;;
18738;SDS011;9498;51.862;19.460;2023-05-10T02:35:55;7.53;;;3.30;;
18738;SDS011;9498;51.862;19.460;2023-05-10T02:38:22;8.23;;;3.97;;
18738;SDS011;9498;51.862;19.460;2023-05-10T02:40:52;11.23;;;3.63;;
18738;SDS011;9498;51.862;19.460;2023-05-10T02:43:20;7.37;;;3.80;;
18738;SDS011;9498;51.862;19.460;2023-05-10T02:45:49;6.33;;;3.50;;
18738;SDS011;9498;51.862;19.460;2023-05-10T02:48:16;8.37;;;3.80;;
18738;SDS011;9498;51.862;19.460;2023-05-10T02:50:44;9.20;;;3.50;;
18738;SDS011;9498;51.862;19.460;2023-05-10T02:53:22;9.33;;;3.70;;
18738;SDS011;9498;51.862;19.460;2023-05-10T02:55:52;5.87;;;3.57;;
18738;SDS011;9498;51.862;19.460;2023-05-10T02:58:19;8.33;;;3.60;;
18738;SDS011;9498;51.862;19.460;2023-05-10T03:00:46;6.67;;;3.63;;
18738;SDS011;9498;51.862;19.460;2023-05-10T03:03:14;10.20;;;3.70;;
18738;SDS011;9498;51.862;19.460;2023-05-10T03:05:41;8.17;;;3.17;;
18738;SDS011;9498;51.862;19.460;2023-05-10T03:08:08;6.60;;;3.40;;
18738;SDS011;9498;51.862;19.460;2023-05-10T03:10:38;8.57;;;3.50;;
18738;SDS011;9498;51.862;19.460;2023-05-10T03:13:10;12.30;;;3.63;;
18738;SDS011;9498;51.862;19.460;2023-05-10T03:15:42;7.87;;;3.40;;
18738;SDS011;9498;51.862;19.460;2023-05-10T03:18:15;5.43;;;3.07;;
18738;SDS011;9498;51.862;19.460;2023-05-10T03:20:47;10.37;;;3.53;;
18738;SDS011;9498;51.862;19.460;2023-05-10T03:23:19;6.50;;;3.30;;
18738;SDS011;9498;51.862;19.460;2023-05-10T03:25:48;9.63;;;3.50;;
18738;SDS011;9498;51.862;19.460;2023-05-10T03:28:17;8.43;;;3.27;;
18738;SDS011;9498;51.862;19.460;2023-05-10T03:30:45;9.40;;;4.10;;
18738;SDS011;9498;51.862;19.460;2023-05-10T03:33:12;7.67;;;3.70;;
18738;SDS011;9498;51.862;19.460;2023-05-10T03:35:40;8.20;;;3.47;;
18738;SDS011;9498;51.862;19.460;2023-05-10T03:38:09;9.10;;;3.70;;
18738;SDS011;9498;51.862;19.460;2023-05-10T03:40:36;9.43;;;3.87;;
18738;SDS011;9498;51.862;19.460;2023-05-10T03:43:03;7.47;;;3.33;;
18738;SDS011;9498;51.862;19.460;2023-05-10T03:45:32;10.60;;;3.50;;
18738;SDS011;9498;51.862;19.460;2023-05-10T03:47:59;7.87;;;3.40;;
18738;SDS011;9498;51.862;19.460;2023-05-10T04:03:19;8.50;;;3.33;;
18738;SDS011;9498;51.862;19.460;2023-05-10T04:05:46;7.73;;;3.40;;
18738;SDS011;9498;51.862;19.460;2023-05-10T04:08:13;7.00;;;3.50;;
18738;SDS011;9498;51.862;19.460;2023-05-10T04:10:42;7.73;;;3.33;;
18738;SDS011;9498;51.862;19.460;2023-05-10T04:13:09;5.70;;;3.20;;
18738;SDS011;9498;51.862;19.460;2023-05-10T04:15:36;8.23;;;3.20;;
18738;SDS011;9498;51.862;19.460;2023-05-10T04:18:04;6.53;;;3.50;;
18738;SDS011;9498;51.862;19.460;2023-05-10T04:20:33;12.47;;;3.53;;
18738;SDS011;9498;51.862;19.460;2023-05-10T04:23:00;5.53;;;3.50;;
18738;SDS011;9498;51.862;19.460;2023-05-10T04:25:28;8.77;;;3.10;;
18738;SDS011;9498;51.862;19.460;2023-05-10T04:27:55;9.30;;;3.30;;
18738;SDS011;9498;51.862;19.460;2023-05-10T04:30:22;7.03;;;3.30;;
18738;SDS011;9498;51.862;19.460;2023-05-10T04:32:50;6.57;;;3.53;;
18738;SDS011;9498;51.862;19.460;2023-05-10T04:35:17;7.60;;;3.63;;
18738;SDS011;9498;51.862;19.460;2023-05-10T04:37:46;5.73;;;3.37;;
18738;SDS011;9498;51.862;19.460;2023-05-10T04:40:13;6.20;;;3.20;;
18738;SDS011;9498;51.862;19.460;2023-05-10T04:42:40;7.30;;;3.57;;
18738;SDS011;9498;51.862;19.460;2023-05-10T04:45:08;5.10;;;3.30;;
18738;SDS011;9498;51.862;19.460;2023-05-10T04:47:35;9.67;;;3.70;;
18738;SDS011;9498;51.862;19.460;2023-05-10T04:50:03;5.93;;;3.03;;
18738;SDS011;9498;51.862;19.460;2023-05-10T04:52:30;11.67;;;3.63;;
18738;SDS011;9498;51.862;19.460;2023-05-10T04:54:59;6.13;;;3.30;;
18738;SDS011;9498;51.862;19.460;2023-05-10T04:57:26;7.60;;;3.60;;
18738;SDS011;9498;51.862;19.460;2023-05-10T04:59:54;9.57;;;4.00;;
18738;SDS011;9498;51.862;19.460;2023-05-10T05:02:21;6.60;;;3.37;;
18738;SDS011;9498;51.862;19.460;2023-05-10T05:04:48;7.17;;;2.93;;
18738;SDS011;9498;51.862;19.460;2023-05-10T05:07:16;6.17;;;3.30;;
18738;SDS011;9498;51.862;19.460;2023-05-10T05:09:43;8.03;;;4.07;;
18738;SDS011;9498;51.862;19.460;2023-05-10T05:12:12;7.83;;;3.77;;
18738;SDS011;9498;51.862;19.460;2023-05-10T05:14:39;4.60;;;2.80;;
18738;SDS011;9498;51.862;19.460;2023-05-10T05:17:07;6.50;;;3.30;;
18738;SDS011;9498;51.862;19.460;2023-05-10T05:19:34;8.33;;;3.10;;
18738;SDS011;9498;51.862;19.460;2023-05-10T05:22:02;6.37;;;3.27;;
18738;SDS011;9498;51.862;19.460;2023-05-10T05:24:29;8.67;;;3.20;;
18738;SDS011;9498;51.862;19.460;2023-05-10T05:27:02;9.93;;;3.37;;
18738;SDS011;9498;51.862;19.460;2023-05-10T05:29:31;6.87;;;3.10;;
18738;SDS011;9498;51.862;19.460;2023-05-10T05:31:58;5.63;;;2.77;;
18738;SDS011;9498;51.862;19.460;2023-05-10T05:34:26;5.50;;;3.03;;
18738;SDS011;9498;51.862;19.460;2023-05-10T05:36:53;10.27;;;2.87;;
18738;SDS011;9498;51.862;19.460;2023-05-10T05:39:20;9.17;;;4.00;;
18738;SDS011;9498;51.862;19.460;2023-05-10T05:41:48;10.57;;;3.77;;
18738;SDS011;9498;51.862;19.460;2023-05-10T05:44:15;8.30;;;3.30;;
18738;SDS011;9498;51.862;19.460;2023-05-10T05:46:44;8.93;;;3.43;;
18738;SDS011;9498;51.862;19.460;2023-05-10T05:49:11;6.23;;;2.97;;
18738;SDS011;9498;51.862;19.460;2023-05-10T05:51:39;10.70;;;3.00;;
18738;SDS011;9498;51.862;19.460;2023-05-10T05:54:06;8.13;;;3.67;;
18738;SDS011;9498;51.862;19.460;2023-05-10T05:56:33;5.33;;;3.20;;
18738;SDS011;9498;51.862;19.460;2023-05-10T05:59:01;5.63;;;3.10;;
18738;SDS011;9498;51.862;19.460;2023-05-10T06:01:28;5.53;;;2.60;;
18738;SDS011;9498;51.862;19.460;2023-05-10T06:03:57;6.00;;;2.90;;
18738;SDS011;9498;51.862;19.460;2023-05-10T06:06:24;9.33;;;2.63;;
18738;SDS011;9498;51.862;19.460;2023-05-10T06:08:52;7.73;;;3.53;;
18738;SDS011;9498;51.862;19.460;2023-05-10T06:11:19;8.33;;;2.70;;
18738;SDS011;9498;51.862;19.460;2023-05-10T06:13:46;6.57;;;2.90;;
18738;SDS011;9498;51.862;19.460;2023-05-10T06:16:13;6.97;;;3.43;;
18738;SDS011;9498;51.862;19.460;2023-05-10T06:18:41;7.73;;;2.93;;
18738;SDS011;9498;51.862;19.460;2023-05-10T06:21:09;5.97;;;3.37;;
18738;SDS011;9498;51.862;19.460;2023-05-10T06:23:37;4.77;;;2.80;;
18738;SDS011;9498;51.862;19.460;2023-05-10T06:26:04;9.90;;;3.17;;
18738;SDS011;9498;51.862;19.460;2023-05-10T06:28:31;4.17;;;3.00;;
18738;SDS011;9498;51.862;19.460;2023-05-10T06:30:59;6.73;;;3.20;;
18738;SDS011;9498;51.862;19.460;2023-05-10T06:33:26;7.93;;;2.90;;
18738;SDS011;9498;51.862;19.460;2023-05-10T06:35:54;7.43;;;3.17;;
18738;SDS011;9498;51.862;19.460;2023-05-10T06:38:23;5.67;;;3.10;;
18738;SDS011;9498;51.862;19.460;2023-05-10T06:40:50;9.57;;;3.33;;
18738;SDS011;9498;51.862;19.460;2023-05-10T06:43:17;8.67;;;3.13;;
18738;SDS011;9498;51.862;19.460;2023-05-10T06:45:45;8.20;;;3.53;;
18738;SDS011;9498;51.862;19.460;2023-05-10T06:48:12;12.80;;;3.47;;
18738;SDS011;9498;51.862;19.460;2023-05-10T06:50:39;8.43;;;3.57;;
18738;SDS011;9498;51.862;19.460;2023-05-10T06:53:07;9.87;;;3.60;;
18738;SDS011;9498;51.862;19.460;2023-05-10T06:55:35;4.87;;;3.10;;
18738;SDS011;9498;51.862;19.460;2023-05-10T06:58:03;10.27;;;3.70;;
18738;SDS011;9498;51.862;19.460;2023-05-10T07:00:30;5.83;;;3.13;;
18738;SDS011;9498;51.862;19.460;2023-05-10T07:02:57;6.67;;;2.97;;
18738;SDS011;9498;51.862;19.460;2023-05-10T07:05:40;6.90;;;3.40;;
18738;SDS011;9498;51.862;19.460;2023-05-10T07:08:07;6.33;;;3.60;;
18738;SDS011;9498;51.862;19.460;2023-05-10T07:10:36;7.07;;;3.37;;
18738;SDS011;9498;51.862;19.460;2023-05-10T07:13:03;8.00;;;3.10;;
18738;SDS011;9498;51.862;19.460;2023-05-10T07:15:31;9.60;;;3.33;;
18738;SDS011;9498;51.862;19.460;2023-05-10T07:17:58;7.57;;;3.30;;
18738;SDS011;9498;51.862;19.460;2023-05-10T07:20:26;5.13;;;3.20;;
18738;SDS011;9498;51.862;19.460;2023-05-10T07:22:53;8.10;;;3.43;;
18738;SDS011;9498;51.862;19.460;2023-05-10T07:25:20;8.57;;;3.80;;
18738;SDS011;9498;51.862;19.460;2023-05-10T07:27:49;9.20;;;3.57;;
18738;SDS011;9498;51.862;19.460;2023-05-10T07:30:16;5.10;;;3.40;;
18738;SDS011;9498;51.862;19.460;2023-05-10T07:32:43;10.17;;;3.60;;
18738;SDS011;9498;51.862;19.460;2023-05-10T07:35:11;6.57;;;2.97;;
18738;SDS011;9498;51.862;19.460;2023-05-10T07:37:38;8.50;;;3.47;;
18738;SDS011;9498;51.862;19.460;2023-05-10T07:40:06;10.20;;;3.37;;
18738;SDS011;9498;51.862;19.460;2023-05-10T07:42:33;13.77;;;3.67;;
18738;SDS011;9498;51.862;19.460;2023-05-10T07:45:02;8.23;;;3.67;;
18738;SDS011;9498;51.862;19.460;2023-05-10T07:47:30;15.10;;;3.73;;
18738;SDS011;9498;51.862;19.460;2023-05-10T07:49:57;6.83;;;3.33;;
18738;SDS011;9498;51.862;19.460;2023-05-10T07:52:24;7.57;;;3.40;;
18738;SDS011;9498;51.862;19.460;2023-05-10T07:54:52;7.57;;;3.53;;
18738;SDS011;9498;51.862;19.460;2023-05-10T07:57:21;6.90;;;3.80;;
18738;SDS011;9498;51.862;19.460;2023-05-10T07:59:49;6.27;;;3.53;;
18738;SDS011;9498;51.862;19.460;2023-05-10T08:02:17;7.83;;;3.60;;
18738;SDS011;9498;51.862;19.460;2023-05-10T08:04:45;11.97;;;3.43;;
18738;SDS011;9498;51.862;19.460;2023-05-10T08:07:12;9.63;;;3.37;;
18738;SDS011;9498;51.862;19.460;2023-05-10T08:09:39;7.00;;;3.80;;
18738;SDS011;9498;51.862;19.460;2023-05-10T08:12:07;7.20;;;3.60;;
18738;SDS011;9498;51.862;19.460;2023-05-10T08:14:34;7.63;;;3.30;;
18738;SDS011;9498;51.862;19.460;2023-05-10T08:17:02;7.63;;;3.50;;
18738;SDS011;9498;51.862;19.460;2023-05-10T08:19:31;7.43;;;3.60;;
18738;SDS011;9498;51.862;19.460;2023-05-10T08:21:58;5.20;;;3.13;;
18738;SDS011;9498;51.862;19.460;2023-05-10T08:24:26;9.10;;;3.30;;
18738;SDS011;9498;51.862;19.460;2023-05-10T08:26:53;6.13;;;3.40;;
18738;SDS011;9498;51.862;19.460;2023-05-10T08:29:20;7.07;;;3.60;;
18738;SDS011;9498;51.862;19.460;2023-05-10T08:31:47;6.87;;;3.60;;
18738;SDS011;9498;51.862;19.460;2023-05-10T08:34:15;4.30;;;3.00;;
18738;SDS011;9498;51.862;19.460;2023-05-10T08:36:43;5.53;;;3.47;;
18738;SDS011;9498;51.862;19.460;2023-05-10T08:39:11;9.93;;;3.50;;
18738;SDS011;9498;51.862;19.460;2023-05-10T08:41:39;6.80;;;3.30;;
18738;SDS011;9498;51.862;19.460;2023-05-10T08:44:06;10.30;;;3.20;;
18738;SDS011;9498;51.862;19.460;2023-05-10T08:46:34;9.90;;;3.63;;
18738;SDS011;9498;51.862;19.460;2023-05-10T08:49:05;8.30;;;3.30;;
18738;SDS011;9498;51.862;19.460;2023-05-10T08:51:35;5.40;;;2.90;;
18738;SDS011;9498;51.862;19.460;2023-05-10T08:54:05;7.27;;;3.33;;
18738;SDS011;9498;51.862;19.460;2023-05-10T08:56:32;4.70;;;2.80;;
18738;SDS011;9498;51.862;19.460;2023-05-10T08:59:00;9.20;;;3.03;;
18738;SDS011;9498;51.862;19.460;2023-05-10T09:01:27;5.87;;;3.20;;
18738;SDS011;9498;51.862;19.460;2023-05-10T09:03:54;5.50;;;3.13;;
18738;SDS011;9498;51.862;19.460;2023-05-10T09:06:22;8.87;;;3.10;;
18738;SDS011;9498;51.862;19.460;2023-05-10T09:08:49;8.83;;;3.03;;
18738;SDS011;9498;51.862;19.460;2023-05-10T09:11:18;11.07;;;3.00;;
18738;SDS011;9498;51.862;19.460;2023-05-10T09:13:47;5.57;;;3.20;;
18738;SDS011;9498;51.862;19.460;2023-05-10T09:16:15;8.13;;;2.83;;
18738;SDS011;9498;51.862;19.460;2023-05-10T09:18:42;8.43;;;3.13;;
18738;SDS011;9498;51.862;19.460;2023-05-10T09:21:09;7.70;;;2.87;;
18738;SDS011;9498;51.862;19.460;2023-05-10T09:23:37;8.00;;;3.40;;
18738;SDS011;9498;51.862;19.460;2023-05-10T09:26:04;10.60;;;3.33;;
18738;SDS011;9498;51.862;19.460;2023-05-10T09:28:33;9.33;;;2.93;;
18738;SDS011;9498;51.862;19.460;2023-05-10T09:31:01;6.97;;;3.10;;
18738;SDS011;9498;51.862;19.460;2023-05-10T09:33:28;5.83;;;3.13;;
18738;SDS011;9498;51.862;19.460;2023-05-10T09:36:05;7.00;;;3.37;;
18738;SDS011;9498;51.862;19.460;2023-05-10T09:38:44;3.93;;;2.53;;
18738;SDS011;9498;51.862;19.460;2023-05-10T09:41:15;5.53;;;3.20;;
18738;SDS011;9498;51.862;19.460;2023-05-10T09:43:44;8.43;;;3.33;;
18738;SDS011;9498;51.862;19.460;2023-05-10T09:46:11;7.82;;;2.97;;
18738;SDS011;9498;51.862;19.460;2023-05-10T09:48:42;8.33;;;3.00;;
18738;SDS011;9498;51.862;19.460;2023-05-10T09:51:10;8.23;;;3.10;;
18738;SDS011;9498;51.862;19.460;2023-05-10T09:53:37;7.07;;;2.90;;
18738;SDS011;9498;51.862;19.460;2023-05-10T09:56:04;10.37;;;2.73;;
18738;SDS011;9498;51.862;19.460;2023-05-10T09:58:32;5.03;;;2.80;;
18738;SDS011;9498;51.862;19.460;2023-05-10T10:01:05;7.70;;;2.90;;
18738;SDS011;9498;51.862;19.460;2023-05-10T10:03:40;7.97;;;2.93;;
18738;SDS011;9498;51.862;19.460;2023-05-10T10:06:08;6.87;;;3.20;;
18738;SDS011;9498;51.862;19.460;2023-05-10T10:08:35;4.00;;;2.70;;
18738;SDS011;9498;51.862;19.460;2023-05-10T10:11:03;6.73;;;2.67;;
18738;SDS011;9498;51.862;19.460;2023-05-10T10:13:30;9.13;;;3.17;;
18738;SDS011;9498;51.862;19.460;2023-05-10T10:15:58;6.43;;;2.70;;
18738;SDS011;9498;51.862;19.460;2023-05-10T10:18:26;7.80;;;3.33;;
18738;SDS011;9498;51.862;19.460;2023-05-10T10:20:54;6.37;;;2.83;;
18738;SDS011;9498;51.862;19.460;2023-05-10T10:23:23;10.20;;;3.10;;
18738;SDS011;9498;51.862;19.460;2023-05-10T10:25:50;4.17;;;2.70;;
18738;SDS011;9498;51.862;19.460;2023-05-10T10:28:23;5.60;;;3.10;;
18738;SDS011;9498;51.862;19.460;2023-05-10T10:30:51;5.13;;;2.67;;
18738;SDS011;9498;51.862;19.460;2023-05-10T10:36:29;8.57;;;3.17;;
18738;SDS011;9498;51.862;19.460;2023-05-10T10:38:59;4.50;;;2.87;;
18738;SDS011;9498;51.862;19.460;2023-05-10T10:41:28;10.07;;;3.07;;
18738;SDS011;9498;51.862;19.460;2023-05-10T10:47:25;5.63;;;3.03;;
18738;SDS011;9498;51.862;19.460;2023-05-10T10:50:04;11.30;;;2.90;;
18738;SDS011;9498;51.862;19.460;2023-05-10T10:52:33;9.87;;;3.33;;
18738;SDS011;9498;51.862;19.460;2023-05-10T10:55:02;9.90;;;3.57;;
18738;SDS011;9498;51.862;19.460;2023-05-10T10:57:33;6.73;;;2.77;;
18738;SDS011;9498;51.862;19.460;2023-05-10T11:00:19;6.17;;;3.00;;
18738;SDS011;9498;51.862;19.460;2023-05-10T11:02:47;5.93;;;3.03;;
18738;SDS011;9498;51.862;19.460;2023-05-10T11:05:34;10.27;;;3.00;;
18738;SDS011;9498;51.862;19.460;2023-05-10T11:08:08;7.70;;;2.87;;
18738;SDS011;9498;51.862;19.460;2023-05-10T11:10:36;6.90;;;3.10;;
18738;SDS011;9498;51.862;19.460;2023-05-10T11:13:04;5.90;;;2.93;;
18738;SDS011;9498;51.862;19.460;2023-05-10T11:15:32;7.57;;;3.07;;
18738;SDS011;9498;51.862;19.460;2023-05-10T11:18:00;6.87;;;2.70;;
18738;SDS011;9498;51.862;19.460;2023-05-10T11:20:28;7.57;;;3.03;;
18738;SDS011;9498;51.862;19.460;2023-05-10T11:23:03;8.10;;;2.97;;
18738;SDS011;9498;51.862;19.460;2023-05-10T11:25:42;7.27;;;2.87;;
18738;SDS011;9498;51.862;19.460;2023-05-10T11:28:10;6.97;;;3.10;;
18738;SDS011;9498;51.862;19.460;2023-05-10T11:30:38;8.17;;;3.00;;
18738;SDS011;9498;51.862;19.460;2023-05-10T11:33:06;4.87;;;2.63;;
18738;SDS011;9498;51.862;19.460;2023-05-10T11:35:36;7.23;;;3.03;;
18738;SDS011;9498;51.862;19.460;2023-05-10T11:38:05;10.87;;;3.13;;
18738;SDS011;9498;51.862;19.460;2023-05-10T11:40:32;10.70;;;2.93;;
18738;SDS011;9498;51.862;19.460;2023-05-10T11:43:02;8.80;;;3.07;;
18738;SDS011;9498;51.862;19.460;2023-05-10T11:45:29;4.50;;;2.80;;
18738;SDS011;9498;51.862;19.460;2023-05-10T11:47:59;6.87;;;3.13;;
18738;SDS011;9498;51.862;19.460;2023-05-10T11:50:26;5.63;;;3.10;;
18738;SDS011;9498;51.862;19.460;2023-05-10T11:52:54;10.27;;;3.10;;
18738;SDS011;9498;51.862;19.460;2023-05-10T11:55:22;7.47;;;3.03;;
18738;SDS011;9498;51.862;19.460;2023-05-10T11:57:51;7.37;;;2.90;;
18738;SDS011;9498;51.862;19.460;2023-05-10T12:00:20;7.43;;;2.93;;
18738;SDS011;9498;51.862;19.460;2023-05-10T12:02:47;9.23;;;3.00;;
18738;SDS011;9498;51.862;19.460;2023-05-10T12:05:15;5.33;;;2.70;;
18738;SDS011;9498;51.862;19.460;2023-05-10T12:07:42;4.93;;;3.00;;
18738;SDS011;9498;51.862;19.460;2023-05-10T12:10:10;7.07;;;3.00;;
18738;SDS011;9498;51.862;19.460;2023-05-10T12:15:10;4.87;;;3.00;;
18738;SDS011;9498;51.862;19.460;2023-05-10T12:17:39;5.13;;;2.93;;
18738;SDS011;9498;51.862;19.460;2023-05-10T12:20:13;5.53;;;3.33;;
18738;SDS011;9498;51.862;19.460;2023-05-10T12:22:41;5.53;;;2.63;;
18738;SDS011;9498;51.862;19.460;2023-05-10T12:25:08;5.77;;;2.97;;
18738;SDS011;9498;51.862;19.460;2023-05-10T12:27:36;4.97;;;2.50;;
18738;SDS011;9498;51.862;19.460;2023-05-10T12:30:05;5.93;;;3.00;;
18738;SDS011;9498;51.862;19.460;2023-05-10T12:32:40;9.07;;;3.07;;
18738;SDS011;9498;51.862;19.460;2023-05-10T12:35:07;4.93;;;2.80;;
18738;SDS011;9498;51.862;19.460;2023-05-10T12:37:35;7.53;;;2.83;;
18738;SDS011;9498;51.862;19.460;2023-05-10T12:40:05;5.07;;;2.63;;
18738;SDS011;9498;51.862;19.460;2023-05-10T12:42:34;5.53;;;2.50;;
18738;SDS011;9498;51.862;19.460;2023-05-10T12:45:02;3.93;;;2.60;;
18738;SDS011;9498;51.862;19.460;2023-05-10T12:47:30;4.23;;;2.80;;
18738;SDS011;9498;51.862;19.460;2023-05-10T12:49:59;6.93;;;2.80;;
18738;SDS011;9498;51.862;19.460;2023-05-10T12:52:27;5.07;;;2.60;;
18738;SDS011;9498;51.862;19.460;2023-05-10T12:54:55;10.93;;;2.70;;
18738;SDS011;9498;51.862;19.460;2023-05-10T12:57:22;6.47;;;3.30;;
18738;SDS011;9498;51.862;19.460;2023-05-10T12:59:49;21.03;;;3.13;;
18738;SDS011;9498;51.862;19.460;2023-05-10T13:02:17;5.27;;;2.70;;
18738;SDS011;9498;51.862;19.460;2023-05-10T13:04:45;6.67;;;2.73;;
18738;SDS011;9498;51.862;19.460;2023-05-10T13:07:14;4.73;;;3.00;;
18738;SDS011;9498;51.862;19.460;2023-05-10T13:09:41;5.97;;;2.97;;
18738;SDS011;9498;51.862;19.460;2023-05-10T13:12:08;7.97;;;2.70;;
18738;SDS011;9498;51.862;19.460;2023-05-10T13:14:36;4.83;;;3.03;;
18738;SDS011;9498;51.862;19.460;2023-05-10T13:17:05;10.27;;;2.87;;
18738;SDS011;9498;51.862;19.460;2023-05-10T13:19:33;11.85;;;3.20;;
18738;SDS011;9498;51.862;19.460;2023-05-10T13:22:00;7.28;;;3.10;;
18738;SDS011;9498;51.862;19.460;2023-05-10T13:24:29;9.90;;;3.30;;
18738;SDS011;9498;51.862;19.460;2023-05-10T13:26:57;10.10;;;3.00;;
18738;SDS011;9498;51.862;19.460;2023-05-10T13:29:25;7.83;;;2.93;;
18738;SDS011;9498;51.862;19.460;2023-05-10T13:31:52;8.17;;;3.00;;
18738;SDS011;9498;51.862;19.460;2023-05-10T13:34:20;8.00;;;2.93;;
18738;SDS011;9498;51.862;19.460;2023-05-10T13:36:47;5.80;;;2.83;;
18738;SDS011;9498;51.862;19.460;2023-05-10T13:39:14;6.87;;;2.70;;
18738;SDS011;9498;51.862;19.460;2023-05-10T13:41:43;5.37;;;2.90;;
18738;SDS011;9498;51.862;19.460;2023-05-10T13:44:11;4.17;;;2.67;;
18738;SDS011;9498;51.862;19.460;2023-05-10T13:46:39;5.57;;;3.00;;
18738;SDS011;9498;51.862;19.460;2023-05-10T13:49:08;7.60;;;3.00;;
18738;SDS011;9498;51.862;19.460;2023-05-10T13:51:35;7.30;;;3.17;;
18738;SDS011;9498;51.862;19.460;2023-05-10T13:54:03;5.07;;;2.77;;
18738;SDS011;9498;51.862;19.460;2023-05-10T13:56:30;7.37;;;2.73;;
18738;SDS011;9498;51.862;19.460;2023-05-10T13:59:00;4.50;;;2.83;;
18738;SDS011;9498;51.862;19.460;2023-05-10T14:01:27;6.33;;;3.23;;
18738;SDS011;9498;51.862;19.460;2023-05-10T14:03:55;8.37;;;3.27;;
18738;SDS011;9498;51.862;19.460;2023-05-10T14:06:22;9.63;;;3.13;;
18738;SDS011;9498;51.862;19.460;2023-05-10T14:08:50;6.23;;;2.60;;
18738;SDS011;9498;51.862;19.460;2023-05-10T14:11:17;6.20;;;2.90;;
18738;SDS011;9498;51.862;19.460;2023-05-10T14:13:45;3.47;;;2.60;;
18738;SDS011;9498;51.862;19.460;2023-05-10T14:16:14;4.70;;;2.90;;
18738;SDS011;9498;51.862;19.460;2023-05-10T14:18:41;4.80;;;2.40;;
18738;SDS011;9498;51.862;19.460;2023-05-10T14:21:08;6.33;;;2.77;;
18738;SDS011;9498;51.862;19.460;2023-05-10T14:23:36;7.17;;;2.87;;
18738;SDS011;9498;51.862;19.460;2023-05-10T14:26:03;6.50;;;2.80;;
18738;SDS011;9498;51.862;19.460;2023-05-10T14:28:31;5.97;;;2.80;;
18738;SDS011;9498;51.862;19.460;2023-05-10T14:30:58;9.43;;;2.80;;
18738;SDS011;9498;51.862;19.460;2023-05-10T14:33:27;6.70;;;2.80;;
18738;SDS011;9498;51.862;19.460;2023-05-10T14:35:55;12.03;;;3.00;;
18738;SDS011;9498;51.862;19.460;2023-05-10T14:38:22;4.90;;;2.80;;
18738;SDS011;9498;51.862;19.460;2023-05-10T14:40:50;5.63;;;2.90;;
18738;SDS011;9498;51.862;19.460;2023-05-10T14:43:17;5.40;;;2.90;;
18738;SDS011;9498;51.862;19.460;2023-05-10T14:45:45;6.87;;;3.40;;
18738;SDS011;9498;51.862;19.460;2023-05-10T14:48:12;10.93;;;3.70;;
18738;SDS011;9498;51.862;19.460;2023-05-10T14:50:44;5.87;;;2.90;;
18738;SDS011;9498;51.862;19.460;2023-05-10T14:53:12;5.30;;;2.93;;
18738;SDS011;9498;51.862;19.460;2023-05-10T14:55:39;7.70;;;2.67;;
18738;SDS011;9498;51.862;19.460;2023-05-10T14:58:07;7.47;;;2.77;;
18738;SDS011;9498;51.862;19.460;2023-05-10T15:00:35;8.60;;;2.63;;
18738;SDS011;9498;51.862;19.460;2023-05-10T15:03:02;7.13;;;2.90;;
18738;SDS011;9498;51.862;19.460;2023-05-10T15:05:30;6.07;;;2.70;;
18738;SDS011;9498;51.862;19.460;2023-05-10T15:07:59;5.77;;;2.70;;
18738;SDS011;9498;51.862;19.460;2023-05-10T15:10:27;6.30;;;2.47;;
18738;SDS011;9498;51.862;19.460;2023-05-10T15:12:54;5.17;;;2.83;;
18738;SDS011;9498;51.862;19.460;2023-05-10T15:15:22;7.20;;;3.20;;
18738;SDS011;9498;51.862;19.460;2023-05-10T15:17:50;7.13;;;2.83;;